sensor_id;sensor_type;location;lat;lon;timestamp;P1;durP1;ratioP1;P2;durP2;ratioP2
1140;SDS011;559;48.628;8.924;2023-05-15T00:02:23;127.45;;;120.65;;
1140;SDS011;559;48.628;8.924;2023-05-15T00:04:50;124.15;;;117.40;;
1140;SDS011;559;48.628;8.924;2023-05-15T00:07:18;122.47;;;116.03;;
1140;SDS011;559;48.628;8.924;2023-05-15T00:09:45;133.48;;;126.57;;
1140;SDS011;559;48.628;8.924;2023-05-15T00:12:11;134.40;;;127.53;;
1140;SDS011;559;48.628;8.924;2023-05-15T00:14:38;123.85;;;117.45;;
1140;SDS011;559;48.628;8.924;2023-05-15T00:17:04;126.65;;;120.13;;
1140;SDS011;559;48.628;8.924;2023-05-15T00:19:31;125.72;;;119.13;;
1140;SDS011;559;48.628;8.924;2023-05-15T00:21:58;124.53;;;118.03;;
1140;SDS011;559;48.628;8.924;2023-05-15T00:24:26;119.43;;;112.82;;
1140;SDS011;559;48.628;8.924;2023-05-15T00:26:52;124.97;;;118.47;;
1140;SDS011;559;48.628;8.924;2023-05-15T00:29:19;129.07;;;122.38;;
1140;SDS011;559;48.628;8.924;2023-05-15T00:31:45;128.13;;;121.50;;
1140;SDS011;559;48.628;8.924;2023-05-15T00:34:12;123.82;;;117.32;;
1140;SDS011;559;48.628;8.924;2023-05-15T00:36:38;129.55;;;122.75;;
1140;SDS011;559;48.628;8.924;2023-05-15T00:39:05;127.50;;;120.90;;
1140;SDS011;559;48.628;8.924;2023-05-15T00:41:32;123.85;;;117.35;;
1140;SDS011;559;48.628;8.924;2023-05-15T00:44:00;104.18;;;98.05;;
1140;SDS011;559;48.628;8.924;2023-05-15T00:46:27;102.18;;;95.78;;
1140;SDS011;559;48.628;8.924;2023-05-15T00:48:56;106.15;;;99.75;;
1140;SDS011;559;48.628;8.924;2023-05-15T00:51:23;107.47;;;101.18;;
1140;SDS011;559;48.628;8.924;2023-05-15T00:53:51;109.18;;;102.93;;
1140;SDS011;559;48.628;8.924;2023-05-15T00:56:18;117.95;;;111.45;;
1140;SDS011;559;48.628;8.924;2023-05-15T00:58:47;111.88;;;105.53;;
1140;SDS011;559;48.628;8.924;2023-05-15T01:01:14;112.57;;;106.18;;
1140;SDS011;559;48.628;8.924;2023-05-15T01:03:41;112.13;;;105.63;;
1140;SDS011;559;48.628;8.924;2023-05-15T01:06:08;116.43;;;109.90;;
1140;SDS011;559;48.628;8.924;2023-05-15T01:08:36;105.15;;;98.85;;
1140;SDS011;559;48.628;8.924;2023-05-15T01:11:04;116.00;;;109.40;;
1140;SDS011;559;48.628;8.924;2023-05-15T01:13:31;116.43;;;109.72;;
1140;SDS011;559;48.628;8.924;2023-05-15T01:15:58;120.57;;;113.80;;
1140;SDS011;559;48.628;8.924;2023-05-15T01:18:25;118.38;;;111.47;;
1140;SDS011;559;48.628;8.924;2023-05-15T01:21:00;116.38;;;109.78;;
1140;SDS011;559;48.628;8.924;2023-05-15T01:23:38;116.28;;;109.68;;
1140;SDS011;559;48.628;8.924;2023-05-15T01:29:03;108.78;;;102.18;;
1140;SDS011;559;48.628;8.924;2023-05-15T01:31:31;114.25;;;107.65;;
1140;SDS011;559;48.628;8.924;2023-05-15T01:34:01;111.28;;;104.38;;
1140;SDS011;559;48.628;8.924;2023-05-15T01:36:29;103.80;;;97.45;;
1140;SDS011;559;48.628;8.924;2023-05-15T01:38:59;105.35;;;98.85;;
1140;SDS011;559;48.628;8.924;2023-05-15T01:41:28;105.57;;;99.07;;
1140;SDS011;559;48.628;8.924;2023-05-15T01:43:56;98.80;;;92.70;;
1140;SDS011;559;48.628;8.924;2023-05-15T01:46:28;103.10;;;96.72;;
1140;SDS011;559;48.628;8.924;2023-05-15T01:48:55;105.18;;;98.55;;
1140;SDS011;559;48.628;8.924;2023-05-15T01:51:23;105.78;;;99.22;;
1140;SDS011;559;48.628;8.924;2023-05-15T01:53:51;101.03;;;94.70;;
1140;SDS011;559;48.628;8.924;2023-05-15T01:56:18;104.82;;;98.40;;
1140;SDS011;559;48.628;8.924;2023-05-15T01:58:46;103.57;;;97.18;;
1140;SDS011;559;48.628;8.924;2023-05-15T02:01:13;105.82;;;99.32;;
1140;SDS011;559;48.628;8.924;2023-05-15T02:03:42;106.40;;;100.00;;
1140;SDS011;559;48.628;8.924;2023-05-15T02:06:10;102.90;;;96.68;;
1140;SDS011;559;48.628;8.924;2023-05-15T02:08:37;101.05;;;94.68;;
1140;SDS011;559;48.628;8.924;2023-05-15T02:11:04;98.93;;;92.80;;
1140;SDS011;559;48.628;8.924;2023-05-15T02:13:32;104.28;;;97.88;;
1140;SDS011;559;48.628;8.924;2023-05-15T02:15:59;96.72;;;90.72;;
1140;SDS011;559;48.628;8.924;2023-05-15T02:18:26;103.60;;;96.95;;
1140;SDS011;559;48.628;8.924;2023-05-15T02:20:54;91.22;;;85.30;;
1140;SDS011;559;48.628;8.924;2023-05-15T02:23:20;101.18;;;94.78;;
1140;SDS011;559;48.628;8.924;2023-05-15T02:25:49;100.63;;;94.22;;
1140;SDS011;559;48.628;8.924;2023-05-15T02:28:22;104.35;;;98.03;;
1140;SDS011;559;48.628;8.924;2023-05-15T02:30:53;94.63;;;88.43;;
1140;SDS011;559;48.628;8.924;2023-05-15T02:33:22;98.78;;;92.35;;
1140;SDS011;559;48.628;8.924;2023-05-15T02:35:51;100.53;;;94.13;;
1140;SDS011;559;48.628;8.924;2023-05-15T02:38:23;100.63;;;94.25;;
1140;SDS011;559;48.628;8.924;2023-05-15T02:40:53;99.50;;;92.97;;
1140;SDS011;559;48.628;8.924;2023-05-15T02:43:21;111.07;;;104.43;;
1140;SDS011;559;48.628;8.924;2023-05-15T02:45:47;103.47;;;97.07;;
1140;SDS011;559;48.628;8.924;2023-05-15T02:48:14;109.43;;;102.72;;
1140;SDS011;559;48.628;8.924;2023-05-15T02:50:42;112.63;;;105.93;;
1140;SDS011;559;48.628;8.924;2023-05-15T02:53:10;111.63;;;104.85;;
1140;SDS011;559;48.628;8.924;2023-05-15T02:55:38;111.38;;;104.47;;
1140;SDS011;559;48.628;8.924;2023-05-15T02:58:05;101.25;;;94.90;;
1140;SDS011;559;48.628;8.924;2023-05-15T03:00:31;111.47;;;104.78;;
1140;SDS011;559;48.628;8.924;2023-05-15T03:02:58;112.78;;;106.07;;
1140;SDS011;559;48.628;8.924;2023-05-15T03:05:24;107.90;;;101.32;;
1140;SDS011;559;48.628;8.924;2023-05-15T03:07:51;110.78;;;103.93;;
1140;SDS011;559;48.628;8.924;2023-05-15T03:10:19;110.97;;;104.25;;
1140;SDS011;559;48.628;8.924;2023-05-15T03:12:47;111.93;;;105.25;;
1140;SDS011;559;48.628;8.924;2023-05-15T03:15:14;107.18;;;100.57;;
1140;SDS011;559;48.628;8.924;2023-05-15T03:17:41;110.90;;;104.18;;
1140;SDS011;559;48.628;8.924;2023-05-15T03:20:07;111.85;;;104.90;;
1140;SDS011;559;48.628;8.924;2023-05-15T03:22:35;112.25;;;105.43;;
1140;SDS011;559;48.628;8.924;2023-05-15T03:25:01;110.28;;;103.57;;
1140;SDS011;559;48.628;8.924;2023-05-15T03:27:29;105.88;;;99.35;;
1140;SDS011;559;48.628;8.924;2023-05-15T03:29:56;108.88;;;102.28;;
1140;SDS011;559;48.628;8.924;2023-05-15T03:32:22;112.03;;;105.13;;
1140;SDS011;559;48.628;8.924;2023-05-15T03:34:49;115.20;;;108.20;;
1140;SDS011;559;48.628;8.924;2023-05-15T03:37:15;108.50;;;101.90;;
1140;SDS011;559;48.628;8.924;2023-05-15T03:39:42;112.13;;;105.32;;
1140;SDS011;559;48.628;8.924;2023-05-15T03:42:08;115.18;;;108.22;;
1140;SDS011;559;48.628;8.924;2023-05-15T03:44:36;114.68;;;107.70;;
1140;SDS011;559;48.628;8.924;2023-05-15T03:47:02;111.05;;;104.00;;
1140;SDS011;559;48.628;8.924;2023-05-15T03:49:29;134.82;;;125.10;;
1140;SDS011;559;48.628;8.924;2023-05-15T03:51:56;134.00;;;125.00;;
1140;SDS011;559;48.628;8.924;2023-05-15T03:54:22;120.80;;;112.93;;
1140;SDS011;559;48.628;8.924;2023-05-15T03:56:49;118.70;;;111.25;;
1140;SDS011;559;48.628;8.924;2023-05-15T03:59:15;114.03;;;106.75;;
1140;SDS011;559;48.628;8.924;2023-05-15T04:01:43;120.18;;;112.68;;
1140;SDS011;559;48.628;8.924;2023-05-15T04:04:10;119.15;;;111.55;;
1140;SDS011;559;48.628;8.924;2023-05-15T04:06:36;133.77;;;125.57;;
1140;SDS011;559;48.628;8.924;2023-05-15T04:09:03;120.90;;;113.45;;
1140;SDS011;559;48.628;8.924;2023-05-15T04:11:29;121.93;;;114.72;;
1140;SDS011;559;48.628;8.924;2023-05-15T04:13:58;126.65;;;119.43;;
1140;SDS011;559;48.628;8.924;2023-05-15T04:16:25;131.20;;;123.47;;
1140;SDS011;559;48.628;8.924;2023-05-15T04:18:53;130.98;;;123.57;;
1140;SDS011;559;48.628;8.924;2023-05-15T04:21:19;131.77;;;124.32;;
1140;SDS011;559;48.628;8.924;2023-05-15T04:23:46;131.45;;;124.15;;
1140;SDS011;559;48.628;8.924;2023-05-15T04:26:12;136.18;;;128.57;;
1140;SDS011;559;48.628;8.924;2023-05-15T04:28:39;133.07;;;125.63;;
1140;SDS011;559;48.628;8.924;2023-05-15T04:31:05;135.23;;;127.40;;
1140;SDS011;559;48.628;8.924;2023-05-15T04:33:32;131.82;;;124.32;;
1140;SDS011;559;48.628;8.924;2023-05-15T04:36:00;133.82;;;126.22;;
1140;SDS011;559;48.628;8.924;2023-05-15T04:38:26;132.05;;;124.30;;
1140;SDS011;559;48.628;8.924;2023-05-15T04:40:53;137.00;;;128.90;;
1140;SDS011;559;48.628;8.924;2023-05-15T04:43:19;132.90;;;125.07;;
1140;SDS011;559;48.628;8.924;2023-05-15T04:45:46;134.02;;;126.05;;
1140;SDS011;559;48.628;8.924;2023-05-15T04:48:12;128.15;;;120.50;;
1140;SDS011;559;48.628;8.924;2023-05-15T04:50:43;125.57;;;118.18;;
1140;SDS011;559;48.628;8.924;2023-05-15T04:53:11;132.88;;;124.97;;
1140;SDS011;559;48.628;8.924;2023-05-15T04:55:37;129.27;;;121.72;;
1140;SDS011;559;48.628;8.924;2023-05-15T04:58:04;129.65;;;122.15;;
1140;SDS011;559;48.628;8.924;2023-05-15T05:00:30;123.20;;;115.60;;
1140;SDS011;559;48.628;8.924;2023-05-15T05:02:57;127.60;;;120.15;;
1140;SDS011;559;48.628;8.924;2023-05-15T05:05:23;120.32;;;113.22;;
1140;SDS011;559;48.628;8.924;2023-05-15T05:07:50;120.35;;;113.18;;
1140;SDS011;559;48.628;8.924;2023-05-15T05:10:18;112.55;;;105.45;;
1140;SDS011;559;48.628;8.924;2023-05-15T05:12:45;118.80;;;111.60;;
1140;SDS011;559;48.628;8.924;2023-05-15T05:15:11;112.25;;;105.45;;
1140;SDS011;559;48.628;8.924;2023-05-15T05:17:38;112.38;;;105.57;;
1140;SDS011;559;48.628;8.924;2023-05-15T05:20:05;111.68;;;104.85;;
1140;SDS011;559;48.628;8.924;2023-05-15T05:22:34;110.13;;;103.40;;
1140;SDS011;559;48.628;8.924;2023-05-15T05:25:01;105.93;;;99.40;;
1140;SDS011;559;48.628;8.924;2023-05-15T05:27:29;116.78;;;110.07;;
1140;SDS011;559;48.628;8.924;2023-05-15T05:29:56;117.18;;;110.38;;
1140;SDS011;559;48.628;8.924;2023-05-15T05:32:22;116.32;;;109.18;;
1140;SDS011;559;48.628;8.924;2023-05-15T05:34:49;108.22;;;101.72;;
1140;SDS011;559;48.628;8.924;2023-05-15T05:37:15;105.43;;;99.03;;
1140;SDS011;559;48.628;8.924;2023-05-15T05:39:42;97.57;;;91.38;;
1140;SDS011;559;48.628;8.924;2023-05-15T05:42:08;99.05;;;93.15;;
1140;SDS011;559;48.628;8.924;2023-05-15T05:44:36;96.47;;;90.68;;
1140;SDS011;559;48.628;8.924;2023-05-15T05:47:02;91.60;;;86.00;;
1140;SDS011;559;48.628;8.924;2023-05-15T05:49:29;91.97;;;86.22;;
1140;SDS011;559;48.628;8.924;2023-05-15T05:51:56;84.55;;;79.05;;
1140;SDS011;559;48.628;8.924;2023-05-15T05:54:22;84.97;;;79.68;;
1140;SDS011;559;48.628;8.924;2023-05-15T05:56:49;86.95;;;81.40;;
1140;SDS011;559;48.628;8.924;2023-05-15T05:59:15;84.30;;;78.80;;
1140;SDS011;559;48.628;8.924;2023-05-15T06:01:43;82.00;;;76.60;;
1140;SDS011;559;48.628;8.924;2023-05-15T06:04:10;71.70;;;66.95;;
1140;SDS011;559;48.628;8.924;2023-05-15T06:06:36;70.65;;;65.85;;
1140;SDS011;559;48.628;8.924;2023-05-15T06:09:02;65.22;;;60.83;;
1140;SDS011;559;48.628;8.924;2023-05-15T06:11:29;64.90;;;60.20;;
1140;SDS011;559;48.628;8.924;2023-05-15T06:13:56;65.35;;;60.83;;
1140;SDS011;559;48.628;8.924;2023-05-15T06:16:22;61.43;;;57.03;;
1140;SDS011;559;48.628;8.924;2023-05-15T06:18:50;60.47;;;56.38;;
1140;SDS011;559;48.628;8.924;2023-05-15T06:21:17;62.42;;;58.22;;
1140;SDS011;559;48.628;8.924;2023-05-15T06:23:43;56.55;;;52.70;;
1140;SDS011;559;48.628;8.924;2023-05-15T06:26:10;54.88;;;51.38;;
1140;SDS011;559;48.628;8.924;2023-05-15T06:28:36;52.97;;;49.57;;
1140;SDS011;559;48.628;8.924;2023-05-15T06:31:03;55.17;;;51.67;;
1140;SDS011;559;48.628;8.924;2023-05-15T06:33:30;53.57;;;50.23;;
1140;SDS011;559;48.628;8.924;2023-05-15T06:35:57;50.87;;;47.67;;
1140;SDS011;559;48.628;8.924;2023-05-15T06:38:24;52.03;;;48.73;;
1140;SDS011;559;48.628;8.924;2023-05-15T06:40:51;51.23;;;48.03;;
1140;SDS011;559;48.628;8.924;2023-05-15T06:43:17;51.53;;;48.33;;
1140;SDS011;559;48.628;8.924;2023-05-15T06:45:44;49.23;;;46.20;;
1140;SDS011;559;48.628;8.924;2023-05-15T06:48:10;50.37;;;47.03;;
1140;SDS011;559;48.628;8.924;2023-05-15T06:50:37;49.60;;;46.17;;
1140;SDS011;559;48.628;8.924;2023-05-15T06:53:05;49.77;;;46.67;;
1140;SDS011;559;48.628;8.924;2023-05-15T06:55:31;49.13;;;46.23;;
1140;SDS011;559;48.628;8.924;2023-05-15T06:58:00;51.70;;;48.60;;
1140;SDS011;559;48.628;8.924;2023-05-15T07:00:26;53.00;;;49.70;;
1140;SDS011;559;48.628;8.924;2023-05-15T07:02:53;48.57;;;45.53;;
1140;SDS011;559;48.628;8.924;2023-05-15T07:05:19;50.70;;;47.73;;
1140;SDS011;559;48.628;8.924;2023-05-15T07:07:46;50.83;;;47.80;;
1140;SDS011;559;48.628;8.924;2023-05-15T07:10:14;53.07;;;49.90;;
1140;SDS011;559;48.628;8.924;2023-05-15T07:12:41;50.60;;;47.57;;
1140;SDS011;559;48.628;8.924;2023-05-15T07:15:08;51.33;;;48.13;;
1140;SDS011;559;48.628;8.924;2023-05-15T07:17:35;51.87;;;48.57;;
1140;SDS011;559;48.628;8.924;2023-05-15T07:20:01;49.77;;;46.97;;
1140;SDS011;559;48.628;8.924;2023-05-15T07:22:30;49.00;;;46.33;;
1140;SDS011;559;48.628;8.924;2023-05-15T07:24:56;50.60;;;47.17;;
1140;SDS011;559;48.628;8.924;2023-05-15T07:27:24;48.10;;;45.60;;
1140;SDS011;559;48.628;8.924;2023-05-15T07:29:51;46.90;;;44.50;;
1140;SDS011;559;48.628;8.924;2023-05-15T07:32:18;47.23;;;44.73;;
1140;SDS011;559;48.628;8.924;2023-05-15T07:34:45;47.03;;;44.50;;
1140;SDS011;559;48.628;8.924;2023-05-15T07:37:11;45.20;;;42.90;;
1140;SDS011;559;48.628;8.924;2023-05-15T07:39:38;46.67;;;44.33;;
1140;SDS011;559;48.628;8.924;2023-05-15T07:42:05;45.73;;;43.40;;
1140;SDS011;559;48.628;8.924;2023-05-15T07:44:33;43.90;;;41.90;;
1140;SDS011;559;48.628;8.924;2023-05-15T07:46:59;43.53;;;41.33;;
1140;SDS011;559;48.628;8.924;2023-05-15T07:49:26;42.93;;;40.73;;
1140;SDS011;559;48.628;8.924;2023-05-15T07:51:52;40.40;;;38.60;;
1140;SDS011;559;48.628;8.924;2023-05-15T07:54:19;41.63;;;39.53;;
1140;SDS011;559;48.628;8.924;2023-05-15T07:56:45;41.37;;;39.47;;
1140;SDS011;559;48.628;8.924;2023-05-15T07:59:12;40.63;;;38.73;;
1140;SDS011;559;48.628;8.924;2023-05-15T08:01:40;42.93;;;40.93;;
1140;SDS011;559;48.628;8.924;2023-05-15T08:04:06;40.60;;;38.80;;
1140;SDS011;559;48.628;8.924;2023-05-15T08:06:33;38.97;;;37.10;;
1140;SDS011;559;48.628;8.924;2023-05-15T08:09:02;38.20;;;36.63;;
1140;SDS011;559;48.628;8.924;2023-05-15T08:11:28;37.53;;;35.90;;
1140;SDS011;559;48.628;8.924;2023-05-15T08:13:55;36.87;;;35.17;;
1140;SDS011;559;48.628;8.924;2023-05-15T08:16:22;37.30;;;35.53;;
1140;SDS011;559;48.628;8.924;2023-05-15T08:18:50;38.20;;;36.50;;
1140;SDS011;559;48.628;8.924;2023-05-15T08:21:17;37.43;;;35.70;;
1140;SDS011;559;48.628;8.924;2023-05-15T08:23:43;38.87;;;37.17;;
1140;SDS011;559;48.628;8.924;2023-05-15T08:26:10;37.70;;;36.13;;
1140;SDS011;559;48.628;8.924;2023-05-15T08:28:36;33.60;;;32.40;;
1140;SDS011;559;48.628;8.924;2023-05-15T08:31:03;36.57;;;34.93;;
1140;SDS011;559;48.628;8.924;2023-05-15T08:33:30;31.97;;;30.97;;
1140;SDS011;559;48.628;8.924;2023-05-15T08:35:57;36.70;;;35.50;;
1140;SDS011;559;48.628;8.924;2023-05-15T08:38:24;35.87;;;34.77;;
1140;SDS011;559;48.628;8.924;2023-05-15T08:40:51;44.40;;;42.80;;
1140;SDS011;559;48.628;8.924;2023-05-15T08:43:19;46.67;;;45.17;;
1140;SDS011;559;48.628;8.924;2023-05-15T08:45:46;52.40;;;50.80;;
1140;SDS011;559;48.628;8.924;2023-05-15T08:48:17;53.03;;;51.13;;
1140;SDS011;559;48.628;8.924;2023-05-15T08:50:45;38.70;;;37.47;;
1140;SDS011;559;48.628;8.924;2023-05-15T08:53:13;50.00;;;48.27;;
1140;SDS011;559;48.628;8.924;2023-05-15T08:55:40;48.73;;;47.13;;
1140;SDS011;559;48.628;8.924;2023-05-15T08:58:07;59.23;;;57.40;;
1140;SDS011;559;48.628;8.924;2023-05-15T09:00:34;53.87;;;52.17;;
1140;SDS011;559;48.628;8.924;2023-05-15T09:03:01;47.93;;;46.33;;
1140;SDS011;559;48.628;8.924;2023-05-15T09:05:28;59.40;;;57.50;;
1140;SDS011;559;48.628;8.924;2023-05-15T09:07:55;59.80;;;57.70;;
1140;SDS011;559;48.628;8.924;2023-05-15T09:10:23;55.57;;;53.77;;
1140;SDS011;559;48.628;8.924;2023-05-15T09:12:50;62.57;;;60.57;;
1140;SDS011;559;48.628;8.924;2023-05-15T09:15:18;64.83;;;62.73;;
1140;SDS011;559;48.628;8.924;2023-05-15T09:17:49;61.30;;;59.40;;
1140;SDS011;559;48.628;8.924;2023-05-15T09:20:25;65.70;;;63.60;;
1140;SDS011;559;48.628;8.924;2023-05-15T09:22:53;47.40;;;45.90;;
1140;SDS011;559;48.628;8.924;2023-05-15T09:25:37;46.63;;;45.23;;
1140;SDS011;559;48.628;8.924;2023-05-15T09:28:04;53.50;;;51.50;;
1140;SDS011;559;48.628;8.924;2023-05-15T09:30:31;56.73;;;54.93;;
1140;SDS011;559;48.628;8.924;2023-05-15T09:32:59;62.17;;;59.87;;
1140;SDS011;559;48.628;8.924;2023-05-15T09:35:28;73.00;;;70.40;;
1140;SDS011;559;48.628;8.924;2023-05-15T09:37:58;72.47;;;69.97;;
1140;SDS011;559;48.628;8.924;2023-05-15T09:40:27;73.00;;;70.40;;
1140;SDS011;559;48.628;8.924;2023-05-15T09:42:55;70.53;;;67.93;;
1140;SDS011;559;48.628;8.924;2023-05-15T09:45:22;76.30;;;73.30;;
1140;SDS011;559;48.628;8.924;2023-05-15T09:47:51;84.10;;;80.90;;
1140;SDS011;559;48.628;8.924;2023-05-15T09:50:20;83.70;;;80.10;;
1140;SDS011;559;48.628;8.924;2023-05-15T09:52:48;86.97;;;84.17;;
1140;SDS011;559;48.628;8.924;2023-05-15T09:55:14;82.13;;;79.33;;
1140;SDS011;559;48.628;8.924;2023-05-15T09:57:43;65.23;;;63.00;;
1140;SDS011;559;48.628;8.924;2023-05-15T10:00:12;85.33;;;82.30;;
1140;SDS011;559;48.628;8.924;2023-05-15T10:02:39;80.33;;;77.83;;
1140;SDS011;559;48.628;8.924;2023-05-15T10:05:06;76.73;;;74.23;;
1140;SDS011;559;48.628;8.924;2023-05-15T10:07:34;56.57;;;54.73;;
1140;SDS011;559;48.628;8.924;2023-05-15T10:10:02;62.23;;;60.33;;
1140;SDS011;559;48.628;8.924;2023-05-15T10:12:29;72.83;;;70.53;;
1140;SDS011;559;48.628;8.924;2023-05-15T10:14:56;47.93;;;46.53;;
1140;SDS011;559;48.628;8.924;2023-05-15T10:17:26;47.07;;;45.57;;
1140;SDS011;559;48.628;8.924;2023-05-15T10:20:02;23.70;;;22.90;;
1140;SDS011;559;48.628;8.924;2023-05-15T10:32:59;37.27;;;35.53;;
1140;SDS011;559;48.628;8.924;2023-05-15T10:39:21;28.33;;;27.53;;
1140;SDS011;559;48.628;8.924;2023-05-15T10:42:00;16.63;;;15.93;;
1140;SDS011;559;48.628;8.924;2023-05-15T10:44:59;13.50;;;13.00;;
1140;SDS011;559;48.628;8.924;2023-05-15T10:54:10;23.03;;;22.33;;
1140;SDS011;559;48.628;8.924;2023-05-15T10:57:10;6.77;;;6.37;;
1140;SDS011;559;48.628;8.924;2023-05-15T10:59:55;6.80;;;6.40;;
1140;SDS011;559;48.628;8.924;2023-05-15T11:05:19;10.20;;;9.70;;
1140;SDS011;559;48.628;8.924;2023-05-15T11:11:04;8.70;;;8.33;;
1140;SDS011;559;48.628;8.924;2023-05-15T11:19:57;3.80;;;3.50;;
1140;SDS011;559;48.628;8.924;2023-05-15T11:22:28;3.63;;;3.43;;
1140;SDS011;559;48.628;8.924;2023-05-15T11:25:03;3.80;;;3.50;;
1140;SDS011;559;48.628;8.924;2023-05-15T11:37:48;3.63;;;3.43;;
1140;SDS011;559;48.628;8.924;2023-05-15T11:51:45;81.30;;;78.80;;
1140;SDS011;559;48.628;8.924;2023-05-15T11:54:29;66.77;;;64.70;;
1140;SDS011;559;48.628;8.924;2023-05-15T11:57:10;37.63;;;36.40;;
1140;SDS011;559;48.628;8.924;2023-05-15T11:59:40;33.93;;;32.73;;
1140;SDS011;559;48.628;8.924;2023-05-15T12:02:19;36.17;;;35.07;;
1140;SDS011;559;48.628;8.924;2023-05-15T12:04:54;38.17;;;36.97;;
1140;SDS011;559;48.628;8.924;2023-05-15T12:07:45;40.20;;;38.80;;
1140;SDS011;559;48.628;8.924;2023-05-15T12:11:07;46.50;;;45.00;;
1140;SDS011;559;48.628;8.924;2023-05-15T12:13:49;49.87;;;48.37;;
1140;SDS011;559;48.628;8.924;2023-05-15T12:16:50;34.63;;;33.50;;
1140;SDS011;559;48.628;8.924;2023-05-15T12:20:24;28.80;;;27.90;;
1140;SDS011;559;48.628;8.924;2023-05-15T12:23:02;28.17;;;27.27;;
1140;SDS011;559;48.628;8.924;2023-05-15T12:25:43;26.57;;;25.63;;
1140;SDS011;559;48.628;8.924;2023-05-15T12:28:20;27.93;;;27.13;;
1140;SDS011;559;48.628;8.924;2023-05-15T12:31:38;38.07;;;36.90;;
1140;SDS011;559;48.628;8.924;2023-05-15T12:43:43;37.93;;;36.40;;
1140;SDS011;559;48.628;8.924;2023-05-15T12:46:11;32.07;;;30.97;;
1140;SDS011;559;48.628;8.924;2023-05-15T12:48:38;24.20;;;23.40;;
1140;SDS011;559;48.628;8.924;2023-05-15T12:51:06;27.20;;;26.20;;
1140;SDS011;559;48.628;8.924;2023-05-15T12:53:35;38.37;;;37.17;;
1140;SDS011;559;48.628;8.924;2023-05-15T12:56:03;48.00;;;46.37;;
1140;SDS011;559;48.628;8.924;2023-05-15T12:58:33;47.83;;;46.43;;
1140;SDS011;559;48.628;8.924;2023-05-15T13:01:02;68.57;;;66.57;;
1140;SDS011;559;48.628;8.924;2023-05-15T13:03:29;65.63;;;63.73;;
1140;SDS011;559;48.628;8.924;2023-05-15T13:05:58;53.27;;;51.67;;
1140;SDS011;559;48.628;8.924;2023-05-15T13:08:24;44.77;;;43.33;;
1140;SDS011;559;48.628;8.924;2023-05-15T13:10:54;50.30;;;48.80;;
1140;SDS011;559;48.628;8.924;2023-05-15T13:13:22;52.37;;;50.47;;
1140;SDS011;559;48.628;8.924;2023-05-15T13:15:50;48.47;;;47.07;;
1140;SDS011;559;48.628;8.924;2023-05-15T13:18:27;49.43;;;47.93;;
1140;SDS011;559;48.628;8.924;2023-05-15T13:20:55;57.50;;;55.80;;
1140;SDS011;559;48.628;8.924;2023-05-15T13:23:30;59.43;;;57.67;;
1140;SDS011;559;48.628;8.924;2023-05-15T13:25:57;69.90;;;67.87;;
1140;SDS011;559;48.628;8.924;2023-05-15T13:28:24;77.40;;;75.20;;
1140;SDS011;559;48.628;8.924;2023-05-15T13:31:04;101.67;;;98.27;;
1140;SDS011;559;48.628;8.924;2023-05-15T13:33:32;117.40;;;113.00;;
1140;SDS011;559;48.628;8.924;2023-05-15T13:35:59;120.10;;;115.43;;
1140;SDS011;559;48.628;8.924;2023-05-15T13:38:31;109.33;;;104.47;;
1140;SDS011;559;48.628;8.924;2023-05-15T13:41:04;111.50;;;106.40;;
1140;SDS011;559;48.628;8.924;2023-05-15T13:43:31;123.07;;;117.47;;
1140;SDS011;559;48.628;8.924;2023-05-15T13:46:01;117.40;;;112.00;;
1140;SDS011;559;48.628;8.924;2023-05-15T13:48:35;112.07;;;106.37;;
1140;SDS011;559;48.628;8.924;2023-05-15T13:51:04;108.77;;;103.40;;
1140;SDS011;559;48.628;8.924;2023-05-15T13:53:31;113.57;;;108.00;;
1140;SDS011;559;48.628;8.924;2023-05-15T13:56:05;116.10;;;110.63;;
1140;SDS011;559;48.628;8.924;2023-05-15T13:58:36;116.90;;;111.60;;
1140;SDS011;559;48.628;8.924;2023-05-15T14:01:06;121.97;;;116.47;;
1140;SDS011;559;48.628;8.924;2023-05-15T14:03:32;123.43;;;118.03;;
1140;SDS011;559;48.628;8.924;2023-05-15T14:06:02;126.03;;;120.13;;
1140;SDS011;559;48.628;8.924;2023-05-15T14:08:31;133.97;;;128.47;;
1140;SDS011;559;48.628;8.924;2023-05-15T14:10:58;137.10;;;131.70;;
1140;SDS011;559;48.628;8.924;2023-05-15T14:13:24;134.60;;;129.30;;
1140;SDS011;559;48.628;8.924;2023-05-15T14:15:51;134.00;;;129.40;;
1140;SDS011;559;48.628;8.924;2023-05-15T14:18:33;131.43;;;127.03;;
1140;SDS011;559;48.628;8.924;2023-05-15T14:21:05;129.50;;;125.23;;
1140;SDS011;559;48.628;8.924;2023-05-15T14:23:38;88.67;;;86.07;;
1140;SDS011;559;48.628;8.924;2023-05-15T14:26:04;69.53;;;67.27;;
1140;SDS011;559;48.628;8.924;2023-05-15T14:28:33;52.33;;;50.87;;
1140;SDS011;559;48.628;8.924;2023-05-15T14:31:00;50.20;;;48.60;;
1140;SDS011;559;48.628;8.924;2023-05-15T14:33:27;37.60;;;36.30;;
1140;SDS011;559;48.628;8.924;2023-05-15T14:35:56;24.43;;;23.70;;
1140;SDS011;559;48.628;8.924;2023-05-15T14:38:26;19.93;;;19.33;;
1140;SDS011;559;48.628;8.924;2023-05-15T14:40:55;14.93;;;14.23;;
1140;SDS011;559;48.628;8.924;2023-05-15T14:43:29;14.27;;;13.70;;
1140;SDS011;559;48.628;8.924;2023-05-15T14:45:55;22.30;;;21.60;;
1140;SDS011;559;48.628;8.924;2023-05-15T14:48:24;37.80;;;36.70;;
1140;SDS011;559;48.628;8.924;2023-05-15T14:50:51;33.40;;;32.40;;
1140;SDS011;559;48.628;8.924;2023-05-15T14:53:18;24.13;;;23.37;;
1140;SDS011;559;48.628;8.924;2023-05-15T14:56:02;18.03;;;17.40;;
1140;SDS011;559;48.628;8.924;2023-05-15T14:58:37;15.30;;;14.73;;
1140;SDS011;559;48.628;8.924;2023-05-15T15:01:16;17.23;;;16.73;;
1140;SDS011;559;48.628;8.924;2023-05-15T15:03:44;22.97;;;22.27;;
1140;SDS011;559;48.628;8.924;2023-05-15T15:06:21;17.63;;;17.03;;
1140;SDS011;559;48.628;8.924;2023-05-15T15:08:47;22.20;;;21.47;;
1140;SDS011;559;48.628;8.924;2023-05-15T15:11:16;20.63;;;20.00;;
1140;SDS011;559;48.628;8.924;2023-05-15T15:13:43;21.60;;;21.00;;
1140;SDS011;559;48.628;8.924;2023-05-15T15:16:09;21.33;;;20.63;;
1140;SDS011;559;48.628;8.924;2023-05-15T15:18:36;15.60;;;15.10;;
1140;SDS011;559;48.628;8.924;2023-05-15T15:21:05;8.37;;;8.07;;
1140;SDS011;559;48.628;8.924;2023-05-15T15:23:34;15.37;;;14.97;;
1140;SDS011;559;48.628;8.924;2023-05-15T15:26:00;15.33;;;14.83;;
1140;SDS011;559;48.628;8.924;2023-05-15T15:28:28;9.20;;;8.80;;
1140;SDS011;559;48.628;8.924;2023-05-15T15:30:57;6.50;;;6.20;;
1140;SDS011;559;48.628;8.924;2023-05-15T15:33:24;4.80;;;4.40;;
1140;SDS011;559;48.628;8.924;2023-05-15T15:35:53;3.80;;;3.33;;
1140;SDS011;559;48.628;8.924;2023-05-15T15:38:20;4.30;;;3.90;;
1140;SDS011;559;48.628;8.924;2023-05-15T15:40:46;5.50;;;4.70;;
1140;SDS011;559;48.628;8.924;2023-05-15T15:43:13;4.97;;;4.47;;
1140;SDS011;559;48.628;8.924;2023-05-15T15:45:41;4.73;;;4.10;;
1140;SDS011;559;48.628;8.924;2023-05-15T15:48:07;5.20;;;4.80;;
1140;SDS011;559;48.628;8.924;2023-05-15T15:50:34;6.20;;;5.70;;
1140;SDS011;559;48.628;8.924;2023-05-15T15:53:00;5.60;;;5.20;;
1140;SDS011;559;48.628;8.924;2023-05-15T15:55:27;6.47;;;5.97;;
1140;SDS011;559;48.628;8.924;2023-05-15T15:57:53;7.47;;;6.83;;
1140;SDS011;559;48.628;8.924;2023-05-15T16:00:20;8.07;;;7.40;;
1140;SDS011;559;48.628;8.924;2023-05-15T16:02:48;6.40;;;6.00;;
1140;SDS011;559;48.628;8.924;2023-05-15T16:05:14;6.53;;;6.17;;
1140;SDS011;559;48.628;8.924;2023-05-15T16:07:41;6.00;;;5.60;;
1140;SDS011;559;48.628;8.924;2023-05-15T16:10:08;5.70;;;5.20;;
1140;SDS011;559;48.628;8.924;2023-05-15T16:12:37;8.80;;;8.20;;